createdAt,value
2017-05-18T00:01:39.566Z,100499.09
2017-05-18T00:04:10.356Z,100492.89
2017-05-18T00:06:41.093Z,100489.77
2017-05-18T00:09:11.856Z,100489.28
2017-05-18T00:11:42.570Z,100485.58
2017-05-18T00:14:13.328Z,100477.41
2017-05-18T00:16:44.050Z,100479.39
2017-05-18T00:19:14.905Z,100474.12
2017-05-18T00:21:45.735Z,100474.70
2017-05-18T00:24:16.556Z,100471.27
2017-05-18T00:26:47.280Z,100470.43
2017-05-18T00:29:18.056Z,100465.09
2017-05-18T00:31:48.807Z,100468.84
2017-05-18T00:34:19.575Z,100458.94
2017-05-18T00:36:50.310Z,100459.00
2017-05-18T00:39:21.084Z,100457.55
2017-05-18T00:41:51.793Z,100453.30
2017-05-18T00:44:22.552Z,100451.63
2017-05-18T00:46:53.265Z,100460.27
2017-05-18T00:49:24.015Z,100455.39
2017-05-18T00:51:54.732Z,100456.44
2017-05-18T00:54:25.537Z,100448.13
2017-05-18T00:56:56.255Z,100443.15
2017-05-18T00:59:27.004Z,100438.35
2017-05-18T01:01:57.719Z,100436.80
2017-05-18T01:04:28.486Z,100441.44
2017-05-18T01:06:59.249Z,100439.82
2017-05-18T01:09:30.055Z,100438.55
2017-05-18T01:12:00.896Z,100440.38
2017-05-18T01:14:31.670Z,100432.72
2017-05-18T01:17:02.411Z,100441.66
2017-05-18T01:19:32.807Z,100439.56
2017-05-18T01:22:03.534Z,100435.27
2017-05-18T01:24:35.172Z,100428.19
2017-05-18T01:27:05.893Z,100435.80
2017-05-18T01:29:36.728Z,100435.03
2017-05-18T01:32:07.482Z,100427.75
2017-05-18T01:34:37.908Z,100430.99
2017-05-18T01:37:08.947Z,100425.38
2017-05-18T01:39:39.351Z,100428.94
2017-05-18T01:42:10.094Z,100425.75
2017-05-18T01:44:40.839Z,100421.80
2017-05-18T01:47:11.571Z,100426.87
2017-05-18T01:49:42.351Z,100418.53
2017-05-18T01:52:13.062Z,100421.00
2017-05-18T01:54:43.867Z,100416.92
2017-05-18T01:57:14.698Z,100417.49
2017-05-18T01:59:45.491Z,100418.05
2017-05-18T02:02:16.254Z,100410.59
2017-05-18T02:04:47.071Z,100414.42
2017-05-18T02:07:17.778Z,100412.23
2017-05-18T02:09:48.562Z,100410.25
2017-05-18T02:12:19.295Z,100409.64
2017-05-18T02:14:50.077Z,100410.30
2017-05-18T02:17:20.810Z,100412.69
2017-05-18T02:19:51.602Z,100412.77
2017-05-18T02:22:22.398Z,100410.09
2017-05-18T02:24:53.989Z,100413.78
2017-05-18T02:27:24.695Z,100409.66
2017-05-18T02:29:56.178Z,100407.29
2017-05-18T02:32:26.928Z,100406.77
2017-05-18T02:34:57.481Z,100402.08
2017-05-18T02:37:28.193Z,100394.68
2017-05-18T02:39:58.944Z,100397.11
2017-05-18T02:42:29.726Z,100392.77
2017-05-18T02:45:00.491Z,100390.59
2017-05-18T02:47:31.198Z,100383.14
2017-05-18T02:50:01.951Z,100386.79
2017-05-18T02:52:32.670Z,100383.34
2017-05-18T02:55:03.828Z,100381.06
2017-05-18T02:57:34.580Z,100374.95
2017-05-18T03:00:04.971Z,100381.12
2017-05-18T03:02:35.697Z,100380.64
2017-05-18T03:05:06.494Z,100379.17
2017-05-18T03:07:37.204Z,100378.51
2017-05-18T03:10:08.310Z,100377.08
2017-05-18T03:12:39.078Z,100372.34
2017-05-18T03:15:09.893Z,100368.30
2017-05-18T03:17:40.630Z,100362.70
2017-05-18T03:20:11.982Z,100368.02
2017-05-18T03:22:42.747Z,100370.02
2017-05-18T03:25:13.544Z,100362.75
2017-05-18T03:27:44.291Z,100360.57
2017-05-18T03:30:15.127Z,100363.47
2017-05-18T03:32:45.937Z,100363.18
2017-05-18T03:35:16.845Z,100363.76
2017-05-18T03:37:47.410Z,100353.84
2017-05-18T03:40:18.187Z,100354.64
2017-05-18T03:42:49.395Z,100352.84
2017-05-18T03:45:20.189Z,100356.22
2017-05-18T03:47:50.927Z,100359.53
2017-05-18T03:50:21.692Z,100356.69
2017-05-18T03:52:52.423Z,100352.94
2017-05-18T03:55:23.256Z,100359.91
2017-05-18T03:57:56.556Z,100352.94
2017-05-18T04:00:27.375Z,100352.61
2017-05-18T04:02:58.106Z,100350.23
2017-05-18T04:05:29.321Z,100355.98
2017-05-18T04:08:02.746Z,100352.55
2017-05-18T04:10:35.331Z,100349.80
2017-05-18T04:13:07.535Z,100341.31
2017-05-18T04:15:38.331Z,100341.26
2017-05-18T04:18:09.133Z,100341.31
2017-05-18T04:20:41.829Z,100337.34
2017-05-18T04:23:28.954Z,100340.05
2017-05-18T04:26:09.778Z,100345.92
2017-05-18T04:28:44.286Z,100343.88
2017-05-18T04:34:36.409Z,100331.67
2017-05-18T04:37:11.647Z,100326.90
2017-05-18T04:39:45.500Z,100334.14
2017-05-18T04:42:20.191Z,100327.88
2017-05-18T04:44:55.562Z,100321.88
2017-05-18T04:47:30.028Z,100320.05
2017-05-18T04:50:04.011Z,100318.78
2017-05-18T04:52:37.448Z,100322.06
2017-05-18T04:55:11.382Z,100319.44
2017-05-18T04:57:46.987Z,100319.19
2017-05-18T05:00:20.355Z,100318.23
2017-05-18T05:02:54.411Z,100320.36
2017-05-18T05:05:25.848Z,100319.31
2017-05-18T05:07:56.679Z,100318.16
2017-05-18T05:10:27.520Z,100313.95
2017-05-18T05:12:58.303Z,100314.78
2017-05-18T05:15:29.109Z,100312.83
2017-05-18T05:17:59.976Z,100313.02
2017-05-18T05:20:30.785Z,100311.33
2017-05-18T05:23:01.621Z,100309.03
2017-05-18T05:25:32.453Z,100303.31
2017-05-18T05:28:03.336Z,100306.83
2017-05-18T05:30:34.135Z,100307.41
2017-05-18T05:33:05.766Z,100304.97
2017-05-18T05:35:36.996Z,100308.54
2017-05-18T05:38:07.831Z,100307.47
2017-05-18T05:40:38.657Z,100303.50
2017-05-18T05:43:09.524Z,100299.52
2017-05-18T05:45:40.327Z,100297.25
2017-05-18T05:48:11.154Z,100304.33
2017-05-18T05:50:42.042Z,100295.35
2017-05-18T05:53:12.935Z,100294.61
2017-05-18T05:55:43.701Z,100295.13
2017-05-18T05:58:14.574Z,100301.69
2017-05-18T06:00:45.342Z,100294.24
2017-05-18T06:03:16.182Z,100291.41
2017-05-18T06:05:47.068Z,100286.14
2017-05-18T06:08:17.876Z,100293.85
2017-05-18T06:10:48.739Z,100291.05
2017-05-18T06:13:19.575Z,100296.38
2017-05-18T06:15:50.377Z,100291.48
2017-05-18T06:18:21.213Z,100294.43
2017-05-18T06:20:52.023Z,100291.45
2017-05-18T06:23:22.842Z,100300.14
2017-05-18T06:25:53.602Z,100288.61
2017-05-18T06:28:24.439Z,100287.58
2017-05-18T06:30:55.220Z,100291.49
2017-05-18T06:33:26.059Z,100288.23
2017-05-18T06:35:57.838Z,100291.80
2017-05-18T06:38:30.247Z,100290.87
2017-05-18T06:41:03.916Z,100302.76
2017-05-18T06:43:35.420Z,100290.51
2017-05-18T06:46:06.186Z,100284.25
2017-05-18T06:48:37.065Z,100290.12
2017-05-18T06:51:07.874Z,100291.98
2017-05-18T06:53:38.753Z,100292.57
2017-05-18T06:56:09.564Z,100280.70
2017-05-18T06:58:40.421Z,100290.87
2017-05-18T07:01:11.214Z,100290.05
2017-05-18T07:03:42.110Z,100289.32
2017-05-18T07:06:12.892Z,100284.28
2017-05-18T07:08:43.724Z,100288.36
2017-05-18T07:11:14.500Z,100286.72
2017-05-18T07:13:45.325Z,100286.16
2017-05-18T07:16:16.093Z,100285.56
2017-05-18T07:18:47.095Z,100286.69
2017-05-18T07:21:17.892Z,100288.99
2017-05-18T07:23:48.703Z,100276.73
2017-05-18T07:26:19.510Z,100277.84
2017-05-18T07:28:50.345Z,100280.22
2017-05-18T07:31:21.108Z,100284.78
2017-05-18T07:33:51.910Z,100274.94
2017-05-18T07:36:22.688Z,100277.09
2017-05-18T07:38:53.514Z,100277.02
2017-05-18T07:41:24.313Z,100269.19
2017-05-18T07:43:55.170Z,100267.16
2017-05-18T07:46:25.951Z,100259.05
2017-05-18T07:48:56.773Z,100260.47
2017-05-18T07:51:27.542Z,100261.31
2017-05-18T07:53:58.367Z,100261.38
2017-05-18T07:56:29.230Z,100255.48
2017-05-18T07:58:59.943Z,100256.05
2017-05-18T08:01:30.730Z,100257.30
2017-05-18T08:04:01.574Z,100250.89
2017-05-18T08:06:33.869Z,100255.05
2017-05-18T08:09:03.969Z,100254.45
2017-05-18T08:11:34.808Z,100254.77
2017-05-18T08:14:05.632Z,100250.91
2017-05-18T08:16:36.405Z,100249.42
2017-05-18T08:19:07.310Z,100251.38
2017-05-18T08:21:38.149Z,100246.42
2017-05-18T08:24:09.067Z,100249.95
2017-05-18T08:26:39.837Z,100246.00
2017-05-18T08:29:10.655Z,100242.89
2017-05-18T08:31:41.429Z,100234.29
2017-05-18T08:34:12.251Z,100243.46
2017-05-18T08:36:43.063Z,100239.37
2017-05-18T08:39:13.908Z,100244.73
2017-05-18T08:41:44.732Z,100243.42
2017-05-18T08:44:15.596Z,100243.67
2017-05-18T08:46:46.396Z,100245.33
2017-05-18T08:49:17.309Z,100246.41
2017-05-18T08:51:48.097Z,100244.56
2017-05-18T08:54:18.931Z,100237.36
2017-05-18T08:56:49.703Z,100234.16
2017-05-18T08:59:20.573Z,100229.48
2017-05-18T09:01:51.386Z,100237.02
2017-05-18T09:04:22.281Z,100232.19
2017-05-18T09:06:53.058Z,100230.17
2017-05-18T09:09:23.859Z,100231.49
2017-05-18T09:11:54.693Z,100220.91
2017-05-18T09:14:25.507Z,100221.88
2017-05-18T09:16:56.306Z,100216.97
2017-05-18T09:19:27.168Z,100215.53
2017-05-18T09:21:57.938Z,100214.30
2017-05-18T09:24:28.793Z,100218.64
2017-05-18T09:26:59.674Z,100218.41
2017-05-18T09:29:30.478Z,100213.91
2017-05-18T09:32:01.275Z,100216.95
2017-05-18T09:34:32.108Z,100220.00
2017-05-18T09:37:02.709Z,100216.06
2017-05-18T09:39:33.513Z,100207.88
2017-05-18T09:42:04.305Z,100209.97
2017-05-18T09:44:35.145Z,100203.34
2017-05-18T09:47:05.963Z,100199.13
2017-05-18T09:49:36.825Z,100205.00
2017-05-18T09:52:07.596Z,100208.09
2017-05-18T09:54:39.512Z,100203.31
2017-05-18T09:57:10.282Z,100204.05
2017-05-18T09:59:41.241Z,100201.52
2017-05-18T10:02:12.059Z,100198.33
2017-05-18T10:04:43.025Z,100193.80
2017-05-18T10:07:13.781Z,100192.11
2017-05-18T10:09:44.610Z,100192.95
2017-05-18T10:12:15.383Z,100189.77
2017-05-18T10:14:46.219Z,100178.80
2017-05-18T10:17:17.006Z,100186.63
2017-05-18T10:19:47.851Z,100180.86
2017-05-18T10:22:18.620Z,100178.36
2017-05-18T10:24:49.484Z,100170.58
2017-05-18T10:27:20.258Z,100173.90
2017-05-18T10:29:51.067Z,100168.16
2017-05-18T10:32:21.863Z,100176.60
2017-05-18T10:34:52.705Z,100175.59
2017-05-18T10:37:23.481Z,100173.83
2017-05-18T10:39:54.302Z,100172.69
2017-05-18T10:42:25.075Z,100168.17
2017-05-18T10:44:55.888Z,100169.13
2017-05-18T10:47:26.657Z,100168.70
2017-05-18T10:49:57.480Z,100166.09
2017-05-18T10:52:28.258Z,100168.44
2017-05-18T10:54:58.736Z,100161.38
2017-05-18T10:57:29.530Z,100162.67
2017-05-18T11:00:00.430Z,100161.48
2017-05-18T11:02:31.238Z,100164.10
2017-05-18T11:05:01.692Z,100161.20
2017-05-18T11:07:32.473Z,100166.70
2017-05-18T11:10:03.328Z,100159.08
2017-05-18T11:12:33.733Z,100163.03
2017-05-18T11:15:04.166Z,100158.19
2017-05-18T11:17:34.935Z,100158.48
2017-05-18T11:20:05.778Z,100156.44
2017-05-18T11:22:36.558Z,100154.56
2017-05-18T11:25:08.500Z,100150.36
2017-05-18T11:27:39.397Z,100152.81
2017-05-18T11:30:10.242Z,100149.78
2017-05-18T11:32:41.057Z,100146.70
2017-05-18T11:35:11.912Z,100145.23
2017-05-18T11:37:42.747Z,100140.27
2017-05-18T11:40:13.577Z,100149.20
2017-05-18T11:42:44.357Z,100144.89
2017-05-18T11:45:15.191Z,100139.39
2017-05-18T11:47:45.963Z,100136.75
2017-05-18T11:50:16.832Z,100129.12
2017-05-18T11:52:47.649Z,100129.48
2017-05-18T11:55:18.473Z,100128.33
2017-05-18T11:57:49.291Z,100124.04
2017-05-18T12:00:20.168Z,100122.63
2017-05-18T12:02:50.946Z,100125.23
2017-05-18T12:05:21.762Z,100124.14
2017-05-18T12:07:52.564Z,100120.18
2017-05-18T12:10:23.397Z,100114.79
2017-05-18T12:12:54.164Z,100116.05
2017-05-18T12:15:24.989Z,100116.34
2017-05-18T12:17:55.762Z,100116.05
2017-05-18T12:20:26.397Z,100108.56
2017-05-18T12:22:57.178Z,100112.11
2017-05-18T12:25:28.144Z,100106.13
2017-05-18T12:27:59.005Z,100106.94
2017-05-18T12:30:29.856Z,100106.03
2017-05-18T12:33:00.276Z,100103.94
2017-05-18T12:35:31.072Z,100106.48
2017-05-18T12:38:01.852Z,100095.81
2017-05-18T12:40:32.689Z,100097.15
2017-05-18T12:43:03.534Z,100087.59
2017-05-18T12:45:33.975Z,100084.94
2017-05-18T12:48:04.776Z,100094.50
2017-05-18T12:50:35.609Z,100089.16
2017-05-18T12:53:06.374Z,100088.74
2017-05-18T12:55:37.194Z,100086.67
2017-05-18T12:58:07.985Z,100086.89
2017-05-18T13:00:38.964Z,100082.34
2017-05-18T13:03:09.773Z,100081.16
2017-05-18T13:05:40.576Z,100084.33
2017-05-18T13:08:11.342Z,100081.03
2017-05-18T13:10:42.170Z,100084.41
2017-05-18T13:13:12.957Z,100080.73
2017-05-18T13:15:43.770Z,100072.44
2017-05-18T13:18:14.549Z,100074.45
2017-05-18T13:20:45.391Z,100079.43
2017-05-18T13:23:16.809Z,100079.81
2017-05-18T13:25:48.321Z,100075.09
2017-05-18T13:28:19.084Z,100067.41
2017-05-18T13:30:49.945Z,100065.73
2017-05-18T13:33:20.709Z,100067.50
2017-05-18T13:35:51.527Z,100063.27
2017-05-18T13:39:24.776Z,100056.66
2017-05-18T13:41:55.623Z,100059.39
2017-05-18T13:44:26.414Z,100057.52
2017-05-18T13:46:57.290Z,100056.22
2017-05-18T13:49:28.949Z,100051.46
2017-05-18T13:51:59.814Z,100055.84
2017-05-18T13:54:30.602Z,100056.89
2017-05-18T13:57:01.393Z,100054.86
2017-05-18T13:59:32.176Z,100043.61
2017-05-18T14:02:03.045Z,100039.75
2017-05-18T14:04:33.817Z,100039.20
2017-05-18T14:07:04.636Z,100037.98
2017-05-18T14:09:35.415Z,100030.51
2017-05-18T14:12:07.096Z,100028.43
2017-05-18T14:14:37.877Z,100026.13
2017-05-18T14:17:08.885Z,100019.50
2017-05-18T14:19:39.693Z,100016.48
2017-05-18T14:22:11.031Z,100016.38
2017-05-18T14:24:42.501Z,100022.66
2017-05-18T14:27:13.327Z,100009.55
2017-05-18T14:29:44.097Z,100005.48
2017-05-18T14:32:14.920Z,100013.77
2017-05-18T14:34:45.678Z,100004.11
2017-05-18T14:37:16.758Z,100001.25
2017-05-18T14:39:47.618Z,100002.73
2017-05-18T14:42:18.506Z,99995.91
2017-05-18T14:44:49.279Z,99995.94
2017-05-18T14:47:20.133Z,99989.91
2017-05-18T14:49:50.918Z,99987.52
2017-05-18T14:52:21.748Z,99994.55
2017-05-18T14:54:52.521Z,99987.62
2017-05-18T14:57:23.318Z,99995.94
2017-05-18T14:59:54.085Z,99982.36
2017-05-18T15:02:24.940Z,99978.20
2017-05-18T15:04:56.447Z,99976.28
2017-05-18T15:07:27.248Z,99982.52
2017-05-18T15:09:59.852Z,99973.81
2017-05-18T15:12:32.304Z,99980.19
2017-05-18T15:15:05.402Z,99976.93
2017-05-18T15:17:36.640Z,99977.67
2017-05-18T15:20:08.245Z,99973.76
2017-05-18T15:22:41.053Z,99978.17
2017-05-18T15:25:14.030Z,99976.49
2017-05-18T15:27:47.724Z,99967.36
2017-05-18T15:30:20.198Z,99968.41
2017-05-18T15:32:52.363Z,99967.94
2017-05-18T15:35:26.249Z,99957.74
2017-05-18T15:37:59.406Z,99958.67
2017-05-18T15:40:33.088Z,99952.55
2017-05-18T15:43:04.588Z,99954.46
2017-05-18T15:48:44.361Z,99948.02
2017-05-18T15:51:16.674Z,99934.14
2017-05-18T15:53:48.636Z,99935.91
2017-05-18T15:56:19.504Z,99927.83
2017-05-18T15:58:50.275Z,99929.98
2017-05-18T16:01:21.035Z,99933.24
2017-05-18T16:03:51.816Z,99934.00
2017-05-18T16:06:23.519Z,99932.68
2017-05-18T16:08:55.933Z,99940.23
2017-05-18T16:11:26.939Z,99934.38
2017-05-18T16:14:00.208Z,99932.42
2017-05-18T16:16:31.707Z,99936.74
2017-05-18T16:19:04.070Z,99935.25
2017-05-18T16:21:36.165Z,99935.28
2017-05-18T16:24:08.601Z,99934.87
2017-05-18T16:26:41.126Z,99934.16
2017-05-18T16:29:13.657Z,99938.45
2017-05-18T16:31:47.397Z,99934.55
2017-05-18T16:34:20.128Z,99939.30
2017-05-18T16:36:52.908Z,99943.13
2017-05-18T16:39:25.720Z,99938.67
2017-05-18T16:41:57.792Z,99936.06
2017-05-18T16:44:30.163Z,99936.81
2017-05-18T16:47:02.237Z,99932.53
2017-05-18T16:49:34.360Z,99932.36
2017-05-18T16:52:06.508Z,99933.78
2017-05-18T16:54:39.491Z,99930.75
2017-05-18T16:57:11.445Z,99932.72
2017-05-18T16:59:45.910Z,99937.20
2017-05-18T17:02:17.110Z,99925.86
2017-05-18T17:04:48.653Z,99927.70
2017-05-18T17:07:22.215Z,99930.16
2017-05-18T17:09:55.558Z,99927.66
2017-05-18T17:12:27.494Z,99930.78
2017-05-18T17:14:59.851Z,99936.25
2017-05-18T17:17:33.679Z,99943.38
2017-05-18T17:20:06.009Z,99944.75
2017-05-18T17:22:38.171Z,99946.82
2017-05-18T17:25:09.856Z,99942.16
2017-05-18T17:27:40.932Z,99948.83
2017-05-18T17:30:11.740Z,99946.11
2017-05-18T17:32:43.801Z,99947.05
2017-05-18T17:35:14.585Z,99957.16
2017-05-18T17:37:45.902Z,99980.12
2017-05-18T17:40:16.759Z,99990.10
2017-05-18T17:42:47.566Z,99978.95
2017-05-18T17:45:18.366Z,99983.52
2017-05-18T17:47:49.163Z,99990.42
2017-05-18T17:50:20.055Z,100003.80
2017-05-18T17:52:51.932Z,100004.49
2017-05-18T17:55:23.579Z,100010.88
2017-05-18T17:57:54.321Z,100008.98
2017-05-18T18:00:25.104Z,100011.44
2017-05-18T18:02:55.633Z,100016.26
2017-05-18T18:05:26.443Z,100008.81
2017-05-18T18:07:58.135Z,100003.45
2017-05-18T18:10:31.327Z,100012.59
2017-05-18T18:13:07.308Z,100004.50
2017-05-18T18:15:41.799Z,100004.23
2017-05-18T18:18:14.925Z,100003.34
2017-05-18T18:20:48.804Z,100001.91
2017-05-18T18:23:23.229Z,99998.56
2017-05-18T18:25:57.631Z,100005.02
2017-05-18T18:28:30.754Z,100008.59
2017-05-18T18:31:01.551Z,100010.33
2017-05-18T18:33:32.279Z,100003.19
2017-05-18T18:36:03.064Z,100017.03
2017-05-18T18:38:34.538Z,100015.27
2017-05-18T18:41:05.294Z,100014.31
2017-05-18T18:43:36.087Z,100011.59
2017-05-18T18:46:06.952Z,100008.60
2017-05-18T18:48:37.767Z,100008.05
2017-05-18T18:51:08.557Z,100008.64
2017-05-18T18:53:39.516Z,100018.80
2017-05-18T18:56:11.190Z,100019.38
2017-05-18T18:58:42.034Z,100027.06
2017-05-18T19:01:12.814Z,100025.16
2017-05-18T19:03:43.576Z,100024.17
2017-05-18T19:06:14.478Z,100027.94
2017-05-18T19:08:45.372Z,100025.35
2017-05-18T19:11:16.304Z,100021.95
2017-05-18T19:13:47.235Z,100030.83
2017-05-18T19:16:18.339Z,100038.63
2017-05-18T19:18:49.573Z,100039.26
2017-05-18T19:21:20.375Z,100039.52
2017-05-18T19:23:51.111Z,100042.23
2017-05-18T19:26:22.783Z,100042.98
2017-05-18T19:28:53.646Z,100043.74
2017-05-18T19:31:24.601Z,100050.10
2017-05-18T19:33:55.037Z,100045.97
2017-05-18T19:36:25.867Z,100047.79
2017-05-18T19:38:56.601Z,100041.53
2017-05-18T19:41:28.463Z,100046.61
2017-05-18T19:43:59.213Z,100049.57
2017-05-18T19:46:30.139Z,100051.50
2017-05-18T19:49:01.771Z,100054.75
2017-05-18T19:51:33.450Z,100054.44
2017-05-18T19:54:05.034Z,100060.11
2017-05-18T19:56:37.636Z,100064.52
2017-05-18T19:59:10.457Z,100063.52
2017-05-18T20:01:41.982Z,100069.13
2017-05-18T20:04:12.816Z,100071.53
2017-05-18T20:06:43.766Z,100065.86
2017-05-18T20:09:14.519Z,100066.77
2017-05-18T20:11:45.294Z,100057.67
2017-05-18T20:14:17.196Z,100050.48
2017-05-18T20:16:48.022Z,100057.36
2017-05-18T20:19:18.799Z,100053.38
2017-05-18T20:21:49.627Z,100047.00
2017-05-18T20:24:21.244Z,100046.37
2017-05-18T20:26:52.842Z,100046.93
2017-05-18T20:29:23.627Z,100049.72
2017-05-18T20:31:54.515Z,100052.25
2017-05-18T20:34:25.284Z,100048.30
2017-05-18T20:36:56.067Z,100044.11
2017-05-18T20:39:26.802Z,100040.72
2017-05-18T20:41:57.573Z,100043.69
2017-05-18T20:44:28.293Z,100042.88
2017-05-18T20:46:59.072Z,100042.16
2017-05-18T20:49:29.887Z,100043.61
2017-05-18T20:52:02.595Z,100045.56
2017-05-18T20:54:33.337Z,100034.13
2017-05-18T20:57:04.939Z,100032.84
2017-05-18T20:59:35.697Z,100019.16
2017-05-18T21:02:06.505Z,100018.09
2017-05-18T21:04:37.252Z,100024.77
2017-05-18T21:07:08.797Z,100024.38
2017-05-18T21:09:39.646Z,100026.57
2017-05-18T21:12:10.470Z,100029.47
2017-05-18T21:14:42.256Z,100026.38
2017-05-18T21:17:13.007Z,100026.27
2017-05-18T21:19:43.754Z,100018.59
2017-05-18T21:22:14.565Z,100020.42
2017-05-18T21:24:45.308Z,100011.30
2017-05-18T21:27:16.077Z,100011.49
2017-05-18T21:29:46.810Z,100002.06
2017-05-18T21:32:17.686Z,99999.03
2017-05-18T21:34:48.507Z,99997.39
2017-05-18T21:37:19.271Z,99993.31
2017-05-18T21:39:50.053Z,99990.39
2017-05-18T21:42:20.840Z,99989.58
2017-05-18T21:44:51.562Z,99990.56
2017-05-18T21:47:22.322Z,99989.02
2017-05-18T21:49:53.064Z,99984.94
2017-05-18T21:52:23.852Z,99982.08
2017-05-18T21:54:54.579Z,99988.39
2017-05-18T21:57:25.338Z,99984.33
2017-05-18T21:59:56.061Z,99986.58
2017-05-18T22:02:26.850Z,99985.58
2017-05-18T22:04:57.571Z,99985.91
2017-05-18T22:07:28.388Z,99983.59
2017-05-18T22:09:59.146Z,99984.69
2017-05-18T22:12:31.295Z,99980.94
2017-05-18T22:15:02.071Z,99983.91
2017-05-18T22:17:32.869Z,99980.73
2017-05-18T22:20:03.631Z,99987.14
2017-05-18T22:22:34.411Z,99988.16
2017-05-18T22:25:05.137Z,99975.89
2017-05-18T22:27:35.888Z,99977.05
2017-05-18T22:30:07.364Z,99975.96
2017-05-18T22:32:38.139Z,99976.03
2017-05-18T22:35:11.779Z,99971.00
2017-05-18T22:37:42.598Z,99968.20
2017-05-18T22:40:13.320Z,99969.65
2017-05-18T22:42:44.130Z,99978.34
2017-05-18T22:45:14.854Z,99971.22
2017-05-18T22:47:47.117Z,99964.84
2017-05-18T22:50:17.915Z,99960.19
2017-05-18T22:52:48.829Z,99947.19
2017-05-18T22:55:19.551Z,99951.69
2017-05-18T22:57:50.320Z,99940.03
2017-05-18T23:00:22.183Z,99938.05
2017-05-18T23:02:53.488Z,99936.36
2017-05-18T23:05:24.035Z,99930.19
2017-05-18T23:07:54.856Z,99930.11
2017-05-18T23:10:26.321Z,99928.78
2017-05-18T23:12:57.095Z,99934.02
2017-05-18T23:15:27.838Z,99934.00
2017-05-18T23:17:58.595Z,99938.24
2017-05-18T23:20:29.341Z,99941.65
2017-05-18T23:23:00.116Z,99937.74
2017-05-18T23:25:30.842Z,99929.81
2017-05-18T23:28:01.623Z,99926.05
2017-05-18T23:30:32.381Z,99924.88
2017-05-18T23:33:03.198Z,99921.59
2017-05-18T23:35:33.911Z,99913.58
2017-05-18T23:38:04.667Z,99919.77
2017-05-18T23:40:36.634Z,99914.73
2017-05-18T23:43:08.247Z,99908.30
2017-05-18T23:45:39.118Z,99912.92
2017-05-18T23:48:09.884Z,99911.34
2017-05-18T23:50:40.628Z,99909.87
2017-05-18T23:53:11.398Z,99915.40
2017-05-18T23:55:42.113Z,99918.81
2017-05-18T23:58:13.013Z,99917.74
